sensor_id;sensor_type;location;lat;lon;timestamp;pressure;altitude;pressure_sealevel;temperature;humidity
46718;BME280;32448;44.960;-0.698;2022-12-29T00:00:12;101294.72;;;10.17;100.00
46718;BME280;32448;44.960;-0.698;2022-12-29T00:02:40;101274.78;;;10.19;100.00
46718;BME280;32448;44.960;-0.698;2022-12-29T00:05:08;101274.13;;;10.28;100.00
46718;BME280;32448;44.960;-0.698;2022-12-29T00:07:35;101278.03;;;10.44;100.00
46718;BME280;32448;44.960;-0.698;2022-12-29T00:10:03;101278.16;;;10.48;100.00
46718;BME280;32448;44.960;-0.698;2022-12-29T00:12:31;101276.44;;;10.50;100.00
46718;BME280;32448;44.960;-0.698;2022-12-29T00:15:18;101271.22;;;10.50;100.00
46718;BME280;32448;44.960;-0.698;2022-12-29T00:18:04;101283.97;;;10.73;100.00
46718;BME280;32448;44.960;-0.698;2022-12-29T00:20:34;101293.72;;;10.78;100.00
46718;BME280;32448;44.960;-0.698;2022-12-29T00:23:20;101314.94;;;10.90;100.00
46718;BME280;32448;44.960;-0.698;2022-12-29T00:26:15;101337.81;;;10.99;100.00
46718;BME280;32448;44.960;-0.698;2022-12-29T00:29:02;101330.59;;;10.89;100.00
46718;BME280;32448;44.960;-0.698;2022-12-29T00:31:48;101327.16;;;10.91;100.00
46718;BME280;32448;44.960;-0.698;2022-12-29T00:34:34;101326.91;;;10.81;100.00
46718;BME280;32448;44.960;-0.698;2022-12-29T00:37:20;101328.50;;;10.76;100.00
46718;BME280;32448;44.960;-0.698;2022-12-29T00:40:08;101329.25;;;10.72;100.00
46718;BME280;32448;44.960;-0.698;2022-12-29T00:42:54;101326.63;;;10.70;100.00
46718;BME280;32448;44.960;-0.698;2022-12-29T00:45:41;101332.66;;;10.68;100.00
46718;BME280;32448;44.960;-0.698;2022-12-29T00:48:08;101338.81;;;10.70;100.00
46718;BME280;32448;44.960;-0.698;2022-12-29T00:50:36;101329.25;;;10.72;100.00
46718;BME280;32448;44.960;-0.698;2022-12-29T00:53:03;101321.50;;;10.75;100.00
46718;BME280;32448;44.960;-0.698;2022-12-29T00:55:31;101311.84;;;10.71;100.00
46718;BME280;32448;44.960;-0.698;2022-12-29T00:57:59;101309.09;;;10.66;100.00
46718;BME280;32448;44.960;-0.698;2022-12-29T01:00:26;101293.06;;;10.52;100.00
46718;BME280;32448;44.960;-0.698;2022-12-29T01:02:55;101302.66;;;10.53;100.00
46718;BME280;32448;44.960;-0.698;2022-12-29T01:05:22;101297.44;;;10.53;100.00
46718;BME280;32448;44.960;-0.698;2022-12-29T01:07:50;101287.69;;;10.46;100.00
46718;BME280;32448;44.960;-0.698;2022-12-29T01:10:21;101297.22;;;10.44;100.00
46718;BME280;32448;44.960;-0.698;2022-12-29T01:12:49;101297.34;;;10.50;100.00
46718;BME280;32448;44.960;-0.698;2022-12-29T01:15:17;101296.56;;;10.53;100.00
46718;BME280;32448;44.960;-0.698;2022-12-29T01:18:03;101293.84;;;10.48;100.00
46718;BME280;32448;44.960;-0.698;2022-12-29T01:20:46;101287.78;;;10.51;100.00
46718;BME280;32448;44.960;-0.698;2022-12-29T01:23:14;101291.19;;;10.47;100.00
46718;BME280;32448;44.960;-0.698;2022-12-29T01:25:44;101298.19;;;10.48;100.00
46718;BME280;32448;44.960;-0.698;2022-12-29T01:28:11;101297.47;;;10.55;100.00
46718;BME280;32448;44.960;-0.698;2022-12-29T01:30:39;101299.06;;;10.48;100.00
46718;BME280;32448;44.960;-0.698;2022-12-29T01:33:07;101301.78;;;10.53;100.00
46718;BME280;32448;44.960;-0.698;2022-12-29T01:35:41;101300.00;;;10.52;100.00
46718;BME280;32448;44.960;-0.698;2022-12-29T01:38:09;101307.09;;;10.56;100.00
46718;BME280;32448;44.960;-0.698;2022-12-29T01:40:46;101310.41;;;10.49;100.00
46718;BME280;32448;44.960;-0.698;2022-12-29T01:43:13;101299.09;;;10.50;100.00
46718;BME280;32448;44.960;-0.698;2022-12-29T01:45:50;101280.47;;;10.36;100.00
46718;BME280;32448;44.960;-0.698;2022-12-29T01:48:19;101304.22;;;10.45;100.00
46718;BME280;32448;44.960;-0.698;2022-12-29T01:50:51;101293.34;;;10.30;100.00
46718;BME280;32448;44.960;-0.698;2022-12-29T01:53:27;101312.88;;;10.44;100.00
46718;BME280;32448;44.960;-0.698;2022-12-29T01:56:05;101320.59;;;10.40;100.00
46718;BME280;32448;44.960;-0.698;2022-12-29T01:58:36;101321.53;;;10.42;100.00
46718;BME280;32448;44.960;-0.698;2022-12-29T02:01:06;101329.50;;;10.46;100.00
46718;BME280;32448;44.960;-0.698;2022-12-29T02:03:35;101341.59;;;10.43;100.00
46718;BME280;32448;44.960;-0.698;2022-12-29T02:08:36;101354.72;;;10.44;100.00
46718;BME280;32448;44.960;-0.698;2022-12-29T02:11:05;101361.63;;;10.42;100.00
46718;BME280;32448;44.960;-0.698;2022-12-29T02:13:34;101352.13;;;10.46;100.00
46718;BME280;32448;44.960;-0.698;2022-12-29T02:19:36;101353.25;;;10.55;100.00
46718;BME280;32448;44.960;-0.698;2022-12-29T02:22:24;101351.44;;;10.53;100.00
46718;BME280;32448;44.960;-0.698;2022-12-29T02:33:54;101367.31;;;10.59;100.00
46718;BME280;32448;44.960;-0.698;2022-12-29T02:36:47;101370.88;;;10.63;100.00
46718;BME280;32448;44.960;-0.698;2022-12-29T02:42:49;101372.63;;;10.64;100.00
46718;BME280;32448;44.960;-0.698;2022-12-29T02:48:08;101363.88;;;10.62;100.00
46718;BME280;32448;44.960;-0.698;2022-12-29T02:50:59;101367.41;;;10.64;100.00
46718;BME280;32448;44.960;-0.698;2022-12-29T02:53:29;101356.84;;;10.59;100.00
46718;BME280;32448;44.960;-0.698;2022-12-29T02:56:18;101345.59;;;10.63;100.00
46718;BME280;32448;44.960;-0.698;2022-12-29T02:58:45;101345.56;;;10.62;100.00
46718;BME280;32448;44.960;-0.698;2022-12-29T03:01:21;101341.31;;;10.65;100.00
46718;BME280;32448;44.960;-0.698;2022-12-29T03:06:40;101337.56;;;10.55;100.00
46718;BME280;32448;44.960;-0.698;2022-12-29T03:13:07;101331.19;;;10.44;100.00
46718;BME280;32448;44.960;-0.698;2022-12-29T03:16:09;101339.78;;;10.40;100.00
46718;BME280;32448;44.960;-0.698;2022-12-29T03:19:12;101343.22;;;10.38;100.00
46718;BME280;32448;44.960;-0.698;2022-12-29T03:21:43;101345.75;;;10.35;100.00
46718;BME280;32448;44.960;-0.698;2022-12-29T03:24:42;101331.69;;;10.31;100.00
46718;BME280;32448;44.960;-0.698;2022-12-29T03:27:16;101326.31;;;10.25;100.00
46718;BME280;32448;44.960;-0.698;2022-12-29T03:29:48;101330.53;;;10.20;100.00
46718;BME280;32448;44.960;-0.698;2022-12-29T03:32:26;101323.44;;;10.16;100.00
46718;BME280;32448;44.960;-0.698;2022-12-29T03:34:56;101323.44;;;10.16;100.00
46718;BME280;32448;44.960;-0.698;2022-12-29T03:37:29;101302.16;;;10.02;100.00
46718;BME280;32448;44.960;-0.698;2022-12-29T03:39:58;101320.78;;;10.14;100.00
46718;BME280;32448;44.960;-0.698;2022-12-29T03:42:28;101322.69;;;10.20;100.00
46718;BME280;32448;44.960;-0.698;2022-12-29T03:44:58;101315.59;;;10.17;100.00
46718;BME280;32448;44.960;-0.698;2022-12-29T03:47:26;101323.66;;;10.24;100.00
46718;BME280;32448;44.960;-0.698;2022-12-29T03:49:54;101316.66;;;10.23;100.00
46718;BME280;32448;44.960;-0.698;2022-12-29T03:52:21;101324.66;;;10.29;100.00
46718;BME280;32448;44.960;-0.698;2022-12-29T03:54:51;101317.78;;;10.32;100.00
46718;BME280;32448;44.960;-0.698;2022-12-29T03:57:19;101312.47;;;10.29;100.00
46718;BME280;32448;44.960;-0.698;2022-12-29T03:59:56;101324.97;;;10.41;100.00
46718;BME280;32448;44.960;-0.698;2022-12-29T04:02:24;101309.34;;;10.42;100.00
46718;BME280;32448;44.960;-0.698;2022-12-29T04:04:52;101318.22;;;10.47;100.00
46718;BME280;32448;44.960;-0.698;2022-12-29T04:07:19;101307.91;;;10.53;100.00
46718;BME280;32448;44.960;-0.698;2022-12-29T04:09:47;101303.41;;;10.49;100.00
46718;BME280;32448;44.960;-0.698;2022-12-29T04:12:20;101311.31;;;10.51;100.00
46718;BME280;32448;44.960;-0.698;2022-12-29T04:14:47;101316.72;;;10.57;100.00
46718;BME280;32448;44.960;-0.698;2022-12-29T04:17:15;101298.50;;;10.60;100.00
46718;BME280;32448;44.960;-0.698;2022-12-29T04:19:45;101303.03;;;10.67;100.00
46718;BME280;32448;44.960;-0.698;2022-12-29T04:22:12;101302.13;;;10.67;100.00
46718;BME280;32448;44.960;-0.698;2022-12-29T04:24:40;101310.28;;;10.79;100.00
46718;BME280;32448;44.960;-0.698;2022-12-29T04:27:09;101310.38;;;10.83;100.00
46718;BME280;32448;44.960;-0.698;2022-12-29T04:29:48;101310.59;;;10.91;100.00
46718;BME280;32448;44.960;-0.698;2022-12-29T04:32:44;101316.78;;;10.96;100.00
46718;BME280;32448;44.960;-0.698;2022-12-29T04:35:12;101312.66;;;11.04;100.00
46718;BME280;32448;44.960;-0.698;2022-12-29T04:37:39;101313.47;;;11.02;100.00
46718;BME280;32448;44.960;-0.698;2022-12-29T04:40:07;101314.59;;;11.13;100.00
46718;BME280;32448;44.960;-0.698;2022-12-29T04:42:35;101313.66;;;11.11;100.00
46718;BME280;32448;44.960;-0.698;2022-12-29T04:45:02;101326.31;;;11.30;100.00
46718;BME280;32448;44.960;-0.698;2022-12-29T04:47:41;101312.06;;;11.17;100.00
46718;BME280;32448;44.960;-0.698;2022-12-29T04:50:27;101327.13;;;11.26;100.00
46718;BME280;32448;44.960;-0.698;2022-12-29T04:53:11;101321.72;;;11.20;100.00
46718;BME280;32448;44.960;-0.698;2022-12-29T04:55:39;101313.78;;;11.15;100.00
46718;BME280;32448;44.960;-0.698;2022-12-29T04:58:07;101304.28;;;11.20;100.00
46718;BME280;32448;44.960;-0.698;2022-12-29T05:00:35;101313.03;;;11.21;100.00
46718;BME280;32448;44.960;-0.698;2022-12-29T05:03:02;101308.56;;;11.17;100.00
46718;BME280;32448;44.960;-0.698;2022-12-29T05:05:30;101314.84;;;11.23;100.00
46718;BME280;32448;44.960;-0.698;2022-12-29T05:07:59;101317.53;;;11.26;100.00
46718;BME280;32448;44.960;-0.698;2022-12-29T05:10:26;101326.13;;;11.21;100.00
46718;BME280;32448;44.960;-0.698;2022-12-29T05:12:57;101329.63;;;11.21;100.00
46718;BME280;32448;44.960;-0.698;2022-12-29T05:15:25;101324.34;;;11.20;100.00
46718;BME280;32448;44.960;-0.698;2022-12-29T05:17:52;101328.59;;;11.16;100.00
46718;BME280;32448;44.960;-0.698;2022-12-29T05:20:20;101311.00;;;11.09;100.00
46718;BME280;32448;44.960;-0.698;2022-12-29T05:22:47;101329.63;;;11.21;100.00
46718;BME280;32448;44.960;-0.698;2022-12-29T05:25:15;101336.75;;;11.28;100.00
46718;BME280;32448;44.960;-0.698;2022-12-29T05:27:59;101335.84;;;11.26;100.00
46718;BME280;32448;44.960;-0.698;2022-12-29T05:30:43;101335.78;;;11.23;100.00
46718;BME280;32448;44.960;-0.698;2022-12-29T05:33:11;101340.03;;;11.20;100.00
46718;BME280;32448;44.960;-0.698;2022-12-29T05:35:39;101340.13;;;11.23;100.00
46718;BME280;32448;44.960;-0.698;2022-12-29T05:38:07;101343.50;;;11.19;100.00
46718;BME280;32448;44.960;-0.698;2022-12-29T05:40:34;101340.00;;;11.18;100.00
46718;BME280;32448;44.960;-0.698;2022-12-29T05:43:06;101339.28;;;11.24;100.00
46718;BME280;32448;44.960;-0.698;2022-12-29T05:45:39;101345.44;;;11.26;100.00
46718;BME280;32448;44.960;-0.698;2022-12-29T05:48:25;101341.94;;;11.27;100.00
46718;BME280;32448;44.960;-0.698;2022-12-29T05:51:10;101355.19;;;11.33;100.00
46718;BME280;32448;44.960;-0.698;2022-12-29T05:53:47;101350.69;;;11.27;100.00
46718;BME280;32448;44.960;-0.698;2022-12-29T05:56:16;101348.94;;;11.26;100.00
46718;BME280;32448;44.960;-0.698;2022-12-29T05:58:50;101350.69;;;11.27;100.00
46718;BME280;32448;44.960;-0.698;2022-12-29T06:01:18;101340.09;;;11.21;100.00
46718;BME280;32448;44.960;-0.698;2022-12-29T06:03:48;101337.56;;;11.24;100.00
46718;BME280;32448;44.960;-0.698;2022-12-29T06:06:18;101347.34;;;11.33;100.00
46718;BME280;32448;44.960;-0.698;2022-12-29T06:08:46;101350.63;;;11.24;100.00
46718;BME280;32448;44.960;-0.698;2022-12-29T06:11:14;101344.25;;;11.13;100.00
46718;BME280;32448;44.960;-0.698;2022-12-29T06:13:48;101355.66;;;11.15;100.00
46718;BME280;32448;44.960;-0.698;2022-12-29T06:16:16;101345.09;;;11.12;100.00
46718;BME280;32448;44.960;-0.698;2022-12-29T06:18:43;101343.13;;;11.02;100.00
46718;BME280;32448;44.960;-0.698;2022-12-29T06:21:11;101349.28;;;11.06;100.00
46718;BME280;32448;44.960;-0.698;2022-12-29T06:23:40;101343.03;;;10.99;100.00
46718;BME280;32448;44.960;-0.698;2022-12-29T06:26:07;101342.03;;;10.94;100.00
46718;BME280;32448;44.960;-0.698;2022-12-29T06:28:35;101334.03;;;10.88;100.00
46718;BME280;32448;44.960;-0.698;2022-12-29T06:31:02;101343.66;;;10.89;100.00
46718;BME280;32448;44.960;-0.698;2022-12-29T06:33:30;101344.38;;;10.83;100.00
46718;BME280;32448;44.960;-0.698;2022-12-29T06:35:58;101346.09;;;10.81;100.00
46718;BME280;32448;44.960;-0.698;2022-12-29T06:38:25;101346.91;;;10.79;100.00
46718;BME280;32448;44.960;-0.698;2022-12-29T06:40:52;101346.84;;;10.77;100.00
46718;BME280;32448;44.960;-0.698;2022-12-29T06:43:40;101329.22;;;10.69;100.00
46718;BME280;32448;44.960;-0.698;2022-12-29T06:46:15;101329.97;;;10.65;100.00
46718;BME280;32448;44.960;-0.698;2022-12-29T06:48:43;101327.25;;;10.62;100.00
46718;BME280;32448;44.960;-0.698;2022-12-29T06:51:10;101328.94;;;10.58;100.00
46718;BME280;32448;44.960;-0.698;2022-12-29T06:53:39;101321.97;;;10.58;100.00
46718;BME280;32448;44.960;-0.698;2022-12-29T06:56:07;101322.69;;;10.53;100.00
46718;BME280;32448;44.960;-0.698;2022-12-29T06:58:34;101333.94;;;10.50;100.00
46718;BME280;32448;44.960;-0.698;2022-12-29T07:01:02;101342.53;;;10.45;100.00
46718;BME280;32448;44.960;-0.698;2022-12-29T07:03:30;101332.81;;;10.41;100.00
46718;BME280;32448;44.960;-0.698;2022-12-29T07:05:57;101319.72;;;10.39;100.00
46718;BME280;32448;44.960;-0.698;2022-12-29T07:08:25;101322.31;;;10.38;100.00
46718;BME280;32448;44.960;-0.698;2022-12-29T07:10:52;101324.19;;;10.43;100.00
46718;BME280;32448;44.960;-0.698;2022-12-29T07:13:20;101327.50;;;10.36;100.00
46718;BME280;32448;44.960;-0.698;2022-12-29T07:15:47;101338.00;;;10.39;100.00
46718;BME280;32448;44.960;-0.698;2022-12-29T07:18:15;101331.88;;;10.37;100.00
46718;BME280;32448;44.960;-0.698;2022-12-29T07:20:42;101342.38;;;10.40;100.00
46718;BME280;32448;44.960;-0.698;2022-12-29T07:23:13;101343.22;;;10.39;100.00
46718;BME280;32448;44.960;-0.698;2022-12-29T07:25:41;101346.72;;;10.40;100.00
46718;BME280;32448;44.960;-0.698;2022-12-29T07:28:08;101346.06;;;10.47;100.00
46718;BME280;32448;44.960;-0.698;2022-12-29T07:30:36;101341.84;;;10.52;100.00
46718;BME280;32448;44.960;-0.698;2022-12-29T07:33:05;101342.16;;;10.64;100.00
46718;BME280;32448;44.960;-0.698;2022-12-29T07:35:34;101347.56;;;10.70;100.00
46718;BME280;32448;44.960;-0.698;2022-12-29T07:38:03;101352.13;;;10.79;100.00
46718;BME280;32448;44.960;-0.698;2022-12-29T07:40:30;101349.59;;;10.82;100.00
46718;BME280;32448;44.960;-0.698;2022-12-29T07:42:57;101331.03;;;10.73;100.00
46718;BME280;32448;44.960;-0.698;2022-12-29T07:45:32;101323.91;;;10.66;100.00
46718;BME280;32448;44.960;-0.698;2022-12-29T07:48:07;101343.44;;;10.80;100.00
46718;BME280;32448;44.960;-0.698;2022-12-29T07:50:35;101357.44;;;10.82;100.00
46718;BME280;32448;44.960;-0.698;2022-12-29T07:53:03;101357.59;;;10.88;100.00
46718;BME280;32448;44.960;-0.698;2022-12-29T07:55:31;101356.81;;;10.92;100.00
46718;BME280;32448;44.960;-0.698;2022-12-29T07:57:58;101360.31;;;10.92;100.00
46718;BME280;32448;44.960;-0.698;2022-12-29T08:00:26;101338.25;;;10.81;100.00
46718;BME280;32448;44.960;-0.698;2022-12-29T08:02:56;101365.69;;;10.99;100.00
46718;BME280;32448;44.960;-0.698;2022-12-29T08:05:24;101363.16;;;11.02;100.00
46718;BME280;32448;44.960;-0.698;2022-12-29T08:07:51;101358.72;;;10.99;100.00
46718;BME280;32448;44.960;-0.698;2022-12-29T08:10:18;101364.81;;;10.98;100.00
46718;BME280;32448;44.960;-0.698;2022-12-29T08:12:46;101367.59;;;11.04;100.00
46718;BME280;32448;44.960;-0.698;2022-12-29T08:15:13;101359.88;;;11.10;100.00
46718;BME280;32448;44.960;-0.698;2022-12-29T08:17:41;101366.97;;;11.14;100.00
46718;BME280;32448;44.960;-0.698;2022-12-29T08:20:08;101369.75;;;11.22;100.00
46718;BME280;32448;44.960;-0.698;2022-12-29T08:22:36;101375.00;;;11.22;100.00
46718;BME280;32448;44.960;-0.698;2022-12-29T08:25:07;101374.09;;;11.21;100.00
46718;BME280;32448;44.960;-0.698;2022-12-29T08:27:35;101375.88;;;11.22;100.00
46718;BME280;32448;44.960;-0.698;2022-12-29T08:30:03;101379.25;;;11.18;100.00
46718;BME280;32448;44.960;-0.698;2022-12-29T08:32:31;101382.78;;;11.20;100.00
46718;BME280;32448;44.960;-0.698;2022-12-29T08:34:58;101381.03;;;11.19;100.00
46718;BME280;32448;44.960;-0.698;2022-12-29T08:37:26;101385.47;;;11.22;100.00
46718;BME280;32448;44.960;-0.698;2022-12-29T08:39:57;101376.84;;;11.26;100.00
46718;BME280;32448;44.960;-0.698;2022-12-29T08:42:25;101374.09;;;11.21;100.00
46718;BME280;32448;44.960;-0.698;2022-12-29T08:44:58;101382.06;;;11.26;100.00
46718;BME280;32448;44.960;-0.698;2022-12-29T08:47:26;101394.41;;;11.31;100.00
46718;BME280;32448;44.960;-0.698;2022-12-29T08:49:54;101389.97;;;11.29;100.00
46718;BME280;32448;44.960;-0.698;2022-12-29T08:52:22;101401.38;;;11.31;100.00
46718;BME280;32448;44.960;-0.698;2022-12-29T08:54:49;101407.63;;;11.36;100.00
46718;BME280;32448;44.960;-0.698;2022-12-29T08:57:17;101405.88;;;11.37;100.00
46718;BME280;32448;44.960;-0.698;2022-12-29T09:00:14;101412.00;;;11.39;100.00
46718;BME280;32448;44.960;-0.698;2022-12-29T09:02:42;101412.97;;;11.42;100.00
46718;BME280;32448;44.960;-0.698;2022-12-29T09:05:10;101403.34;;;11.41;100.00
46718;BME280;32448;44.960;-0.698;2022-12-29T09:07:38;101402.66;;;11.48;100.00
46718;BME280;32448;44.960;-0.698;2022-12-29T09:10:06;101416.59;;;11.47;100.00
46718;BME280;32448;44.960;-0.698;2022-12-29T09:12:34;101410.53;;;11.48;100.00
46718;BME280;32448;44.960;-0.698;2022-12-29T09:15:04;101419.22;;;11.47;100.00
46718;BME280;32448;44.960;-0.698;2022-12-29T09:17:31;101421.84;;;11.47;100.00
46718;BME280;32448;44.960;-0.698;2022-12-29T09:20:18;101431.56;;;11.53;100.00
46718;BME280;32448;44.960;-0.698;2022-12-29T09:22:46;101432.81;;;11.68;100.00
46718;BME280;32448;44.960;-0.698;2022-12-29T09:25:14;101432.66;;;11.62;100.00
46718;BME280;32448;44.960;-0.698;2022-12-29T09:27:42;101441.31;;;11.58;100.00
46718;BME280;32448;44.960;-0.698;2022-12-29T09:30:12;101431.81;;;11.63;100.00
46718;BME280;32448;44.960;-0.698;2022-12-29T09:32:39;101429.22;;;11.65;100.00
46718;BME280;32448;44.960;-0.698;2022-12-29T09:35:12;101433.50;;;11.61;100.00
46718;BME280;32448;44.960;-0.698;2022-12-29T09:37:40;101426.28;;;11.51;100.00
46718;BME280;32448;44.960;-0.698;2022-12-29T09:40:24;101409.47;;;11.42;100.00
46718;BME280;32448;44.960;-0.698;2022-12-29T09:45:43;101442.34;;;11.66;100.00
46718;BME280;32448;44.960;-0.698;2022-12-29T09:48:16;101453.81;;;11.70;100.00
46718;BME280;32448;44.960;-0.698;2022-12-29T09:50:55;101443.13;;;11.62;100.00
46718;BME280;32448;44.960;-0.698;2022-12-29T09:53:35;101438.00;;;11.67;100.00
46718;BME280;32448;44.960;-0.698;2022-12-29T09:56:05;101448.72;;;11.76;100.00
46718;BME280;32448;44.960;-0.698;2022-12-29T09:58:43;101439.09;;;11.75;100.00
46718;BME280;32448;44.960;-0.698;2022-12-29T10:03:52;101439.16;;;11.78;100.00
46718;BME280;32448;44.960;-0.698;2022-12-29T10:06:30;101439.81;;;11.71;100.00
46718;BME280;32448;44.960;-0.698;2022-12-29T10:12:01;101447.84;;;11.76;100.00
46718;BME280;32448;44.960;-0.698;2022-12-29T10:14:53;101446.19;;;11.79;100.00
46718;BME280;32448;44.960;-0.698;2022-12-29T10:17:54;101449.69;;;11.80;100.00
46718;BME280;32448;44.960;-0.698;2022-12-29T10:20:43;101434.75;;;11.76;100.00
46718;BME280;32448;44.960;-0.698;2022-12-29T10:23:29;101441.81;;;11.80;100.00
46718;BME280;32448;44.960;-0.698;2022-12-29T10:26:01;101439.16;;;11.78;100.00
46718;BME280;32448;44.960;-0.698;2022-12-29T10:28:40;101441.78;;;11.78;100.00
46718;BME280;32448;44.960;-0.698;2022-12-29T10:31:19;101438.25;;;11.76;100.00
46718;BME280;32448;44.960;-0.698;2022-12-29T10:33:51;101442.72;;;11.80;100.00
46718;BME280;32448;44.960;-0.698;2022-12-29T10:36:43;101440.94;;;11.79;100.00
46718;BME280;32448;44.960;-0.698;2022-12-29T10:39:54;101418.75;;;11.65;100.00
46718;BME280;32448;44.960;-0.698;2022-12-29T10:42:34;101425.03;;;11.73;100.00
46718;BME280;32448;44.960;-0.698;2022-12-29T10:45:05;101426.00;;;11.75;100.00
46718;BME280;32448;44.960;-0.698;2022-12-29T10:47:38;101420.66;;;11.72;100.00
46718;BME280;32448;44.960;-0.698;2022-12-29T10:50:12;101429.38;;;11.73;100.00
46718;BME280;32448;44.960;-0.698;2022-12-29T10:52:40;101425.19;;;11.78;100.00
46718;BME280;32448;44.960;-0.698;2022-12-29T10:55:12;101414.72;;;11.78;100.00
46718;BME280;32448;44.960;-0.698;2022-12-29T10:57:45;101420.81;;;11.77;100.00
46718;BME280;32448;44.960;-0.698;2022-12-29T11:00:21;101425.25;;;11.81;100.00
46718;BME280;32448;44.960;-0.698;2022-12-29T11:08:33;101398.97;;;11.76;100.00
46718;BME280;32448;44.960;-0.698;2022-12-29T11:11:05;101394.69;;;11.80;100.00
46718;BME280;32448;44.960;-0.698;2022-12-29T11:13:48;101401.69;;;11.82;100.00
46718;BME280;32448;44.960;-0.698;2022-12-29T11:16:29;101392.16;;;11.84;100.00
46718;BME280;32448;44.960;-0.698;2022-12-29T11:18:58;101393.09;;;11.88;100.00
46718;BME280;32448;44.960;-0.698;2022-12-29T11:24:05;101381.84;;;11.92;100.00
46718;BME280;32448;44.960;-0.698;2022-12-29T11:26:33;101382.00;;;11.99;100.00
46718;BME280;32448;44.960;-0.698;2022-12-29T11:31:46;101361.81;;;11.95;100.00
46718;BME280;32448;44.960;-0.698;2022-12-29T11:34:26;101377.09;;;12.15;100.00
46718;BME280;32448;44.960;-0.698;2022-12-29T11:37:03;101383.09;;;12.11;100.00
46718;BME280;32448;44.960;-0.698;2022-12-29T11:39:37;101376.97;;;12.10;100.00
46718;BME280;32448;44.960;-0.698;2022-12-29T11:42:06;101384.06;;;12.16;100.00
46718;BME280;32448;44.960;-0.698;2022-12-29T11:44:44;101385.09;;;12.22;100.00
46718;BME280;32448;44.960;-0.698;2022-12-29T11:47:31;101373.03;;;12.30;100.00
46718;BME280;32448;44.960;-0.698;2022-12-29T11:50:06;101370.53;;;12.36;100.00
46718;BME280;32448;44.960;-0.698;2022-12-29T11:52:36;101367.03;;;12.37;100.00
46718;BME280;32448;44.960;-0.698;2022-12-29T11:55:17;101370.72;;;12.49;100.00
46718;BME280;32448;44.960;-0.698;2022-12-29T11:57:46;101355.00;;;12.49;100.00
46718;BME280;32448;44.960;-0.698;2022-12-29T12:00:18;101354.28;;;12.56;100.00
46718;BME280;32448;44.960;-0.698;2022-12-29T12:11:18;101337.63;;;12.54;100.00
46718;BME280;32448;44.960;-0.698;2022-12-29T12:17:10;101338.72;;;12.66;100.00
46718;BME280;32448;44.960;-0.698;2022-12-29T12:19:44;101344.81;;;12.64;100.00
46718;BME280;32448;44.960;-0.698;2022-12-29T12:24:57;101350.31;;;12.79;100.00
46718;BME280;32448;44.960;-0.698;2022-12-29T12:27:29;101344.34;;;12.88;100.00
46718;BME280;32448;44.960;-0.698;2022-12-29T12:41:00;101359.25;;;12.90;100.00
46718;BME280;32448;44.960;-0.698;2022-12-29T12:43:44;101354.03;;;12.93;100.00
46718;BME280;32448;44.960;-0.698;2022-12-29T12:51:56;101318.94;;;12.85;100.00
46718;BME280;32448;44.960;-0.698;2022-12-29T13:00:24;101332.78;;;12.76;100.00
46718;BME280;32448;44.960;-0.698;2022-12-29T13:05:50;101345.13;;;12.84;100.00
46718;BME280;32448;44.960;-0.698;2022-12-29T13:16:25;101318.50;;;12.61;100.00
46718;BME280;32448;44.960;-0.698;2022-12-29T13:22:27;101337.00;;;12.67;100.00
46718;BME280;32448;44.960;-0.698;2022-12-29T13:28:00;101321.94;;;12.55;100.00
46718;BME280;32448;44.960;-0.698;2022-12-29T13:36:03;101352.44;;;12.52;100.00
46718;BME280;32448;44.960;-0.698;2022-12-29T13:38:41;101341.06;;;12.51;100.00
46718;BME280;32448;44.960;-0.698;2022-12-29T13:41:27;101341.84;;;12.46;100.00
46718;BME280;32448;44.960;-0.698;2022-12-29T13:43:58;101337.53;;;12.49;100.00
46718;BME280;32448;44.960;-0.698;2022-12-29T13:46:54;101335.69;;;12.44;100.00
46718;BME280;32448;44.960;-0.698;2022-12-29T13:49:23;101349.59;;;12.39;100.00
46718;BME280;32448;44.960;-0.698;2022-12-29T13:52:01;101345.31;;;12.43;100.00
46718;BME280;32448;44.960;-0.698;2022-12-29T13:58:07;101336.72;;;12.52;100.00
46718;BME280;32448;44.960;-0.698;2022-12-29T14:03:56;101356.72;;;12.45;100.00
46718;BME280;32448;44.960;-0.698;2022-12-29T14:06:32;101353.06;;;12.38;100.00
46718;BME280;32448;44.960;-0.698;2022-12-29T14:09:32;101342.59;;;12.38;100.00
46718;BME280;32448;44.960;-0.698;2022-12-29T14:12:28;101341.72;;;12.39;100.00
46718;BME280;32448;44.960;-0.698;2022-12-29T14:15:06;101332.75;;;12.27;100.00
46718;BME280;32448;44.960;-0.698;2022-12-29T14:17:44;101309.81;;;12.14;100.00
46718;BME280;32448;44.960;-0.698;2022-12-29T14:20:22;101352.91;;;12.29;100.00
46718;BME280;32448;44.960;-0.698;2022-12-29T14:23:14;101351.97;;;12.26;100.00
46718;BME280;32448;44.960;-0.698;2022-12-29T14:28:36;101321.28;;;12.20;100.00
46718;BME280;32448;44.960;-0.698;2022-12-29T14:36:36;101322.19;;;12.22;100.00
46718;BME280;32448;44.960;-0.698;2022-12-29T14:45:00;101329.03;;;12.16;100.00
46718;BME280;32448;44.960;-0.698;2022-12-29T14:47:43;101331.47;;;12.07;100.00
46718;BME280;32448;44.960;-0.698;2022-12-29T14:50:18;101318.25;;;11.99;100.00
46718;BME280;32448;44.960;-0.698;2022-12-29T14:52:56;101343.69;;;12.06;100.00
46718;BME280;32448;44.960;-0.698;2022-12-29T14:58:01;101334.91;;;12.02;100.00
46718;BME280;32448;44.960;-0.698;2022-12-29T15:00:35;101325.91;;;11.90;100.00
46718;BME280;32448;44.960;-0.698;2022-12-29T15:03:32;101350.56;;;11.99;100.00
46718;BME280;32448;44.960;-0.698;2022-12-29T15:06:08;101353.22;;;12.01;100.00
46718;BME280;32448;44.960;-0.698;2022-12-29T15:08:46;101357.50;;;11.97;100.00
46718;BME280;32448;44.960;-0.698;2022-12-29T15:11:29;101368.75;;;11.92;100.00